sensor_id;sensor_type;location;lat;lon;timestamp;pressure;altitude;pressure_sealevel;temperature;humidity
64967;BME280;51710;38.732;-121.358;2022-08-19T00:01:23;100351.97;;;40.09;22.81
64967;BME280;51710;38.732;-121.358;2022-08-19T00:03:51;100353.06;;;40.20;22.55
64967;BME280;51710;38.732;-121.358;2022-08-19T00:06:17;100349.59;;;40.26;22.57
64967;BME280;51710;38.732;-121.358;2022-08-19T00:08:43;100347.38;;;40.32;22.56
64967;BME280;51710;38.732;-121.358;2022-08-19T00:11:10;100345.47;;;40.36;22.74
64967;BME280;51710;38.732;-121.358;2022-08-19T00:13:37;100355.00;;;40.35;22.43
64967;BME280;51710;38.732;-121.358;2022-08-19T00:16:05;100347.06;;;40.37;22.55
64967;BME280;51710;38.732;-121.358;2022-08-19T00:18:32;100346.25;;;40.36;22.71
64967;BME280;51710;38.732;-121.358;2022-08-19T00:20:59;100352.75;;;40.41;23.36
64967;BME280;51710;38.732;-121.358;2022-08-19T00:23:26;100347.97;;;40.41;22.94
64967;BME280;51710;38.732;-121.358;2022-08-19T00:25:53;100349.41;;;40.35;24.03
64967;BME280;51710;38.732;-121.358;2022-08-19T00:28:19;100340.16;;;40.31;23.52
64967;BME280;51710;38.732;-121.358;2022-08-19T00:30:46;100353.94;;;40.24;23.57
64967;BME280;51710;38.732;-121.358;2022-08-19T00:33:12;100340.97;;;40.16;23.57
64967;BME280;51710;38.732;-121.358;2022-08-19T00:35:39;100337.81;;;40.17;24.55
64967;BME280;51710;38.732;-121.358;2022-08-19T00:38:06;100354.16;;;40.15;23.96
64967;BME280;51710;38.732;-121.358;2022-08-19T00:40:32;100352.97;;;40.16;23.57
64967;BME280;51710;38.732;-121.358;2022-08-19T00:42:59;100345.63;;;40.08;23.97
64967;BME280;51710;38.732;-121.358;2022-08-19T00:45:27;100352.19;;;40.00;24.17
64967;BME280;51710;38.732;-121.358;2022-08-19T00:47:56;100342.84;;;39.93;24.07
64967;BME280;51710;38.732;-121.358;2022-08-19T00:50:25;100346.69;;;39.88;23.54
64967;BME280;51710;38.732;-121.358;2022-08-19T00:52:52;100345.28;;;39.79;24.21
64967;BME280;51710;38.732;-121.358;2022-08-19T00:55:21;100329.50;;;39.71;23.67
64967;BME280;51710;38.732;-121.358;2022-08-19T00:57:55;100339.63;;;39.60;24.09
64967;BME280;51710;38.732;-121.358;2022-08-19T01:00:24;100333.84;;;39.53;23.89
64967;BME280;51710;38.732;-121.358;2022-08-19T01:02:52;100335.25;;;39.47;23.87
64967;BME280;51710;38.732;-121.358;2022-08-19T01:05:25;100329.66;;;39.47;24.09
64967;BME280;51710;38.732;-121.358;2022-08-19T01:07:58;100330.41;;;39.44;24.33
64967;BME280;51710;38.732;-121.358;2022-08-19T01:10:27;100316.72;;;39.39;23.82
64967;BME280;51710;38.732;-121.358;2022-08-19T01:12:57;100322.81;;;39.28;24.08
64967;BME280;51710;38.732;-121.358;2022-08-19T01:15:29;100329.66;;;39.15;23.96
64967;BME280;51710;38.732;-121.358;2022-08-19T01:17:57;100324.59;;;39.05;23.68
64967;BME280;51710;38.732;-121.358;2022-08-19T01:20:25;100320.66;;;38.94;24.35
64967;BME280;51710;38.732;-121.358;2022-08-19T01:22:55;100325.31;;;38.90;24.42
64967;BME280;51710;38.732;-121.358;2022-08-19T01:25:26;100322.81;;;38.85;24.55
64967;BME280;51710;38.732;-121.358;2022-08-19T01:27:53;100321.00;;;38.77;24.05
64967;BME280;51710;38.732;-121.358;2022-08-19T01:30:24;100327.50;;;38.69;23.66
64967;BME280;51710;38.732;-121.358;2022-08-19T01:32:52;100320.13;;;38.61;23.51
64967;BME280;51710;38.732;-121.358;2022-08-19T01:35:20;100325.81;;;38.53;23.48
64967;BME280;51710;38.732;-121.358;2022-08-19T01:38:05;100321.28;;;38.48;23.92
64967;BME280;51710;38.732;-121.358;2022-08-19T01:40:35;100317.13;;;38.42;23.46
64967;BME280;51710;38.732;-121.358;2022-08-19T01:43:03;100321.09;;;38.41;24.25
64967;BME280;51710;38.732;-121.358;2022-08-19T01:45:32;100315.31;;;38.34;24.27
64967;BME280;51710;38.732;-121.358;2022-08-19T01:48:00;100313.47;;;38.26;23.71
64967;BME280;51710;38.732;-121.358;2022-08-19T01:50:26;100316.97;;;38.23;23.00
64967;BME280;51710;38.732;-121.358;2022-08-19T01:52:53;100315.56;;;38.17;23.23
64967;BME280;51710;38.732;-121.358;2022-08-19T01:55:21;100311.38;;;38.11;22.25
64967;BME280;51710;38.732;-121.358;2022-08-19T01:57:52;100309.53;;;38.03;22.11
64967;BME280;51710;38.732;-121.358;2022-08-19T02:00:22;100299.81;;;37.97;21.42
64967;BME280;51710;38.732;-121.358;2022-08-19T02:02:49;100308.06;;;37.93;21.64
64967;BME280;51710;38.732;-121.358;2022-08-19T02:05:16;100311.19;;;37.92;21.28
64967;BME280;51710;38.732;-121.358;2022-08-19T02:07:44;100308.41;;;37.92;21.40
64967;BME280;51710;38.732;-121.358;2022-08-19T02:10:16;100310.03;;;37.81;21.56
64967;BME280;51710;38.732;-121.358;2022-08-19T02:12:43;100311.59;;;37.70;21.90
64967;BME280;51710;38.732;-121.358;2022-08-19T02:15:10;100308.84;;;37.58;21.52
64967;BME280;51710;38.732;-121.358;2022-08-19T02:17:37;100320.41;;;37.48;22.10
64967;BME280;51710;38.732;-121.358;2022-08-19T02:20:04;100308.81;;;37.34;21.89
64967;BME280;51710;38.732;-121.358;2022-08-19T02:22:32;100313.97;;;37.23;22.50
64967;BME280;51710;38.732;-121.358;2022-08-19T02:24:58;100313.47;;;37.09;22.56
64967;BME280;51710;38.732;-121.358;2022-08-19T02:27:25;100314.63;;;36.96;22.34
64967;BME280;51710;38.732;-121.358;2022-08-19T02:29:52;100318.50;;;36.83;22.45
64967;BME280;51710;38.732;-121.358;2022-08-19T02:32:18;100315.16;;;36.69;22.91
64967;BME280;51710;38.732;-121.358;2022-08-19T02:34:46;100312.69;;;36.55;23.19
64967;BME280;51710;38.732;-121.358;2022-08-19T02:37:13;100321.44;;;36.45;23.14
64967;BME280;51710;38.732;-121.358;2022-08-19T02:39:58;100319.25;;;36.30;23.53
64967;BME280;51710;38.732;-121.358;2022-08-19T02:42:25;100324.38;;;36.19;24.08
64967;BME280;51710;38.732;-121.358;2022-08-19T02:44:51;100329.94;;;36.11;24.17
64967;BME280;51710;38.732;-121.358;2022-08-19T02:47:19;100322.84;;;36.01;24.58
64967;BME280;51710;38.732;-121.358;2022-08-19T02:49:45;100329.59;;;35.92;24.42
64967;BME280;51710;38.732;-121.358;2022-08-19T02:52:16;100334.22;;;35.79;25.08
64967;BME280;51710;38.732;-121.358;2022-08-19T02:54:42;100335.25;;;35.66;25.67
64967;BME280;51710;38.732;-121.358;2022-08-19T02:57:10;100334.31;;;35.54;25.55
64967;BME280;51710;38.732;-121.358;2022-08-19T02:59:36;100334.84;;;35.39;25.94
64967;BME280;51710;38.732;-121.358;2022-08-19T03:02:03;100339.78;;;35.25;26.59
64967;BME280;51710;38.732;-121.358;2022-08-19T03:04:29;100336.88;;;35.12;26.61
64967;BME280;51710;38.732;-121.358;2022-08-19T03:06:55;100343.88;;;35.01;26.56
64967;BME280;51710;38.732;-121.358;2022-08-19T03:09:22;100349.75;;;34.91;26.75
64967;BME280;51710;38.732;-121.358;2022-08-19T03:11:48;100349.94;;;34.78;27.17
64967;BME280;51710;38.732;-121.358;2022-08-19T03:14:15;100353.34;;;34.66;27.88
64967;BME280;51710;38.732;-121.358;2022-08-19T03:16:47;100356.44;;;34.48;28.25
64967;BME280;51710;38.732;-121.358;2022-08-19T03:19:16;100360.44;;;34.33;28.14
64967;BME280;51710;38.732;-121.358;2022-08-19T03:21:44;100362.84;;;34.18;28.39
64967;BME280;51710;38.732;-121.358;2022-08-19T03:24:11;100366.91;;;34.03;29.04
64967;BME280;51710;38.732;-121.358;2022-08-19T03:26:40;100372.81;;;33.88;28.73
64967;BME280;51710;38.732;-121.358;2022-08-19T03:29:08;100381.25;;;33.74;28.93
64967;BME280;51710;38.732;-121.358;2022-08-19T03:31:36;100385.88;;;33.57;29.62
64967;BME280;51710;38.732;-121.358;2022-08-19T03:34:03;100394.03;;;33.40;29.21
64967;BME280;51710;38.732;-121.358;2022-08-19T03:36:30;100385.59;;;33.14;29.68
64967;BME280;51710;38.732;-121.358;2022-08-19T03:38:59;100393.56;;;32.93;29.41
64967;BME280;51710;38.732;-121.358;2022-08-19T03:41:32;100400.56;;;32.77;29.41
64967;BME280;51710;38.732;-121.358;2022-08-19T03:43:59;100403.44;;;32.59;29.75
64967;BME280;51710;38.732;-121.358;2022-08-19T03:46:28;100400.84;;;32.40;29.38
64967;BME280;51710;38.732;-121.358;2022-08-19T03:48:57;100410.72;;;32.28;30.05
64967;BME280;51710;38.732;-121.358;2022-08-19T03:51:29;100411.25;;;32.16;30.08
64967;BME280;51710;38.732;-121.358;2022-08-19T03:53:58;100410.13;;;32.04;29.91
64967;BME280;51710;38.732;-121.358;2022-08-19T03:56:25;100407.38;;;31.90;30.14
64967;BME280;51710;38.732;-121.358;2022-08-19T03:58:52;100413.66;;;31.77;30.15
64967;BME280;51710;38.732;-121.358;2022-08-19T04:01:21;100414.47;;;31.64;30.42
64967;BME280;51710;38.732;-121.358;2022-08-19T04:03:48;100417.31;;;31.45;30.26
64967;BME280;51710;38.732;-121.358;2022-08-19T04:06:18;100413.34;;;31.33;30.30
64967;BME280;51710;38.732;-121.358;2022-08-19T04:08:48;100422.59;;;31.23;30.41
64967;BME280;51710;38.732;-121.358;2022-08-19T04:11:19;100421.63;;;31.14;30.50
64967;BME280;51710;38.732;-121.358;2022-08-19T04:13:50;100425.38;;;31.05;30.77
64967;BME280;51710;38.732;-121.358;2022-08-19T04:16:18;100425.81;;;30.93;30.83
64967;BME280;51710;38.732;-121.358;2022-08-19T04:18:46;100431.72;;;30.86;30.85
64967;BME280;51710;38.732;-121.358;2022-08-19T04:21:22;100432.09;;;30.80;31.09
64967;BME280;51710;38.732;-121.358;2022-08-19T04:23:49;100427.00;;;30.68;31.29
64967;BME280;51710;38.732;-121.358;2022-08-19T04:26:18;100446.38;;;30.58;31.49
64967;BME280;51710;38.732;-121.358;2022-08-19T04:28:45;100444.06;;;30.47;31.99
64967;BME280;51710;38.732;-121.358;2022-08-19T04:31:18;100450.50;;;30.37;31.79
64967;BME280;51710;38.732;-121.358;2022-08-19T04:33:44;100458.38;;;30.25;32.13
64967;BME280;51710;38.732;-121.358;2022-08-19T04:36:18;100453.50;;;30.17;32.33
64967;BME280;51710;38.732;-121.358;2022-08-19T04:38:47;100453.84;;;30.11;32.56
64967;BME280;51710;38.732;-121.358;2022-08-19T04:41:15;100454.72;;;30.06;32.49
64967;BME280;51710;38.732;-121.358;2022-08-19T04:44:00;100455.06;;;30.00;32.60
64967;BME280;51710;38.732;-121.358;2022-08-19T04:46:28;100462.59;;;29.89;32.28
64967;BME280;51710;38.732;-121.358;2022-08-19T04:48:57;100466.53;;;29.78;32.44
64967;BME280;51710;38.732;-121.358;2022-08-19T04:51:24;100476.28;;;29.65;32.83
64967;BME280;51710;38.732;-121.358;2022-08-19T04:53:51;100472.78;;;29.55;32.84
64967;BME280;51710;38.732;-121.358;2022-08-19T04:56:20;100475.91;;;29.43;32.66
64967;BME280;51710;38.732;-121.358;2022-08-19T04:58:49;100476.81;;;29.34;33.15
64967;BME280;51710;38.732;-121.358;2022-08-19T05:01:21;100475.78;;;29.25;33.28
64967;BME280;51710;38.732;-121.358;2022-08-19T05:03:48;100479.41;;;29.20;32.94
64967;BME280;51710;38.732;-121.358;2022-08-19T05:06:16;100481.34;;;29.15;33.35
64967;BME280;51710;38.732;-121.358;2022-08-19T05:08:43;100470.41;;;29.10;33.65
64967;BME280;51710;38.732;-121.358;2022-08-19T05:11:14;100471.81;;;29.02;33.57
64967;BME280;51710;38.732;-121.358;2022-08-19T05:13:41;100466.38;;;28.92;34.08
64967;BME280;51710;38.732;-121.358;2022-08-19T05:16:10;100465.06;;;28.85;33.83
64967;BME280;51710;38.732;-121.358;2022-08-19T05:18:38;100467.28;;;28.77;34.48
64967;BME280;51710;38.732;-121.358;2022-08-19T05:21:24;100467.34;;;28.67;34.77
64967;BME280;51710;38.732;-121.358;2022-08-19T05:24:09;100463.84;;;28.57;34.68
64967;BME280;51710;38.732;-121.358;2022-08-19T05:26:37;100467.41;;;28.47;34.88
64967;BME280;51710;38.732;-121.358;2022-08-19T05:29:04;100475.69;;;28.37;35.24
64967;BME280;51710;38.732;-121.358;2022-08-19T05:31:31;100479.28;;;28.33;35.09
64967;BME280;51710;38.732;-121.358;2022-08-19T05:33:58;100478.19;;;28.29;35.78
64967;BME280;51710;38.732;-121.358;2022-08-19T05:36:26;100477.91;;;28.25;35.37
64967;BME280;51710;38.732;-121.358;2022-08-19T05:38:54;100478.47;;;28.22;35.85
64967;BME280;51710;38.732;-121.358;2022-08-19T05:41:21;100480.13;;;28.18;35.80
64967;BME280;51710;38.732;-121.358;2022-08-19T05:44:02;100480.97;;;28.14;35.85
64967;BME280;51710;38.732;-121.358;2022-08-19T05:46:31;100481.78;;;28.09;36.06
64967;BME280;51710;38.732;-121.358;2022-08-19T05:48:58;100477.72;;;28.02;36.31
64967;BME280;51710;38.732;-121.358;2022-08-19T05:51:24;100488.94;;;27.95;36.26
64967;BME280;51710;38.732;-121.358;2022-08-19T05:53:51;100494.69;;;27.89;36.62
64967;BME280;51710;38.732;-121.358;2022-08-19T05:56:18;100490.59;;;27.81;36.79
64967;BME280;51710;38.732;-121.358;2022-08-19T05:58:46;100485.94;;;27.71;36.55
64967;BME280;51710;38.732;-121.358;2022-08-19T06:01:14;100483.75;;;27.63;37.08
64967;BME280;51710;38.732;-121.358;2022-08-19T06:03:42;100488.97;;;27.55;36.86
64967;BME280;51710;38.732;-121.358;2022-08-19T06:06:11;100485.69;;;27.48;37.15
64967;BME280;51710;38.732;-121.358;2022-08-19T06:08:38;100476.66;;;27.42;37.15
64967;BME280;51710;38.732;-121.358;2022-08-19T06:11:18;100480.50;;;27.36;37.49
64967;BME280;51710;38.732;-121.358;2022-08-19T06:13:45;100485.69;;;27.33;37.78
64967;BME280;51710;38.732;-121.358;2022-08-19T06:16:13;100479.63;;;27.26;37.59
64967;BME280;51710;38.732;-121.358;2022-08-19T06:18:52;100477.44;;;27.18;37.79
64967;BME280;51710;38.732;-121.358;2022-08-19T06:21:21;100482.38;;;27.11;37.84
64967;BME280;51710;38.732;-121.358;2022-08-19T06:23:48;100480.69;;;27.05;38.13
64967;BME280;51710;38.732;-121.358;2022-08-19T06:26:15;100480.69;;;27.00;38.28
64967;BME280;51710;38.732;-121.358;2022-08-19T06:28:42;100482.88;;;26.98;38.15
64967;BME280;51710;38.732;-121.358;2022-08-19T06:31:27;100483.13;;;26.91;38.27
64967;BME280;51710;38.732;-121.358;2022-08-19T06:33:53;100492.41;;;26.85;38.17
64967;BME280;51710;38.732;-121.358;2022-08-19T06:36:23;100483.63;;;26.78;38.48
64967;BME280;51710;38.732;-121.358;2022-08-19T06:38:57;100483.63;;;26.73;38.39
64967;BME280;51710;38.732;-121.358;2022-08-19T06:41:28;100475.66;;;26.66;38.54
64967;BME280;51710;38.732;-121.358;2022-08-19T06:43:56;100475.91;;;26.60;38.81
64967;BME280;51710;38.732;-121.358;2022-08-19T06:46:23;100476.16;;;26.53;38.74
64967;BME280;51710;38.732;-121.358;2022-08-19T06:48:49;100477.22;;;26.47;38.94
64967;BME280;51710;38.732;-121.358;2022-08-19T06:51:19;100471.75;;;26.42;38.91
64967;BME280;51710;38.732;-121.358;2022-08-19T06:53:51;100473.91;;;26.35;39.09
64967;BME280;51710;38.732;-121.358;2022-08-19T06:56:20;100472.22;;;26.29;39.11
64967;BME280;51710;38.732;-121.358;2022-08-19T06:58:47;100474.38;;;26.22;38.88
64967;BME280;51710;38.732;-121.358;2022-08-19T07:01:17;100474.09;;;26.19;38.95
64967;BME280;51710;38.732;-121.358;2022-08-19T07:03:44;100475.44;;;26.16;39.19
64967;BME280;51710;38.732;-121.358;2022-08-19T07:06:15;100474.88;;;26.09;39.28
64967;BME280;51710;38.732;-121.358;2022-08-19T07:08:44;100463.09;;;26.04;39.64
64967;BME280;51710;38.732;-121.358;2022-08-19T07:11:14;100466.03;;;25.97;39.54
64967;BME280;51710;38.732;-121.358;2022-08-19T07:13:41;100466.28;;;25.91;39.84
64967;BME280;51710;38.732;-121.358;2022-08-19T07:16:16;100458.84;;;25.81;40.07
64967;BME280;51710;38.732;-121.358;2022-08-19T07:18:43;100464.25;;;25.76;39.64
64967;BME280;51710;38.732;-121.358;2022-08-19T07:21:20;100459.84;;;25.70;40.33
64967;BME280;51710;38.732;-121.358;2022-08-19T07:23:48;100460.91;;;25.64;40.20
64967;BME280;51710;38.732;-121.358;2022-08-19T07:26:23;100467.97;;;25.60;39.74
64967;BME280;51710;38.732;-121.358;2022-08-19T07:28:50;100464.66;;;25.58;40.18
64967;BME280;51710;38.732;-121.358;2022-08-19T07:31:21;100464.63;;;25.53;40.17
64967;BME280;51710;38.732;-121.358;2022-08-19T07:33:49;100459.72;;;25.50;40.47
64967;BME280;51710;38.732;-121.358;2022-08-19T07:36:24;100458.00;;;25.44;40.49
64967;BME280;51710;38.732;-121.358;2022-08-19T07:38:52;100459.06;;;25.38;40.60
64967;BME280;51710;38.732;-121.358;2022-08-19T07:41:22;100464.44;;;25.33;40.52
64967;BME280;51710;38.732;-121.358;2022-08-19T07:43:51;100467.13;;;25.28;41.07
64967;BME280;51710;38.732;-121.358;2022-08-19T07:46:19;100467.34;;;25.21;41.02
64967;BME280;51710;38.732;-121.358;2022-08-19T07:48:49;100455.00;;;25.14;41.19
64967;BME280;51710;38.732;-121.358;2022-08-19T07:51:19;100466.69;;;25.09;40.85
64967;BME280;51710;38.732;-121.358;2022-08-19T07:53:48;100467.47;;;25.05;41.01
64967;BME280;51710;38.732;-121.358;2022-08-19T07:56:18;100456.78;;;24.98;40.99
64967;BME280;51710;38.732;-121.358;2022-08-19T07:58:47;100458.63;;;24.93;41.00
64967;BME280;51710;38.732;-121.358;2022-08-19T08:01:18;100461.53;;;24.86;41.16
64967;BME280;51710;38.732;-121.358;2022-08-19T08:03:46;100455.22;;;24.81;41.70
64967;BME280;51710;38.732;-121.358;2022-08-19T08:06:31;100454.91;;;24.77;41.38
64967;BME280;51710;38.732;-121.358;2022-08-19T08:09:19;100452.16;;;24.72;41.69
64967;BME280;51710;38.732;-121.358;2022-08-19T08:11:52;100453.47;;;24.70;41.52
64967;BME280;51710;38.732;-121.358;2022-08-19T08:14:24;100446.34;;;24.69;41.68
64967;BME280;51710;38.732;-121.358;2022-08-19T08:16:52;100438.94;;;24.64;41.92
64967;BME280;51710;38.732;-121.358;2022-08-19T08:19:21;100445.47;;;24.63;41.70
64967;BME280;51710;38.732;-121.358;2022-08-19T08:21:50;100440.28;;;24.62;41.82
64967;BME280;51710;38.732;-121.358;2022-08-19T08:24:18;100430.72;;;24.59;41.81
64967;BME280;51710;38.732;-121.358;2022-08-19T08:26:45;100441.28;;;24.56;42.06
64967;BME280;51710;38.732;-121.358;2022-08-19T08:29:14;100439.66;;;24.55;42.02
64967;BME280;51710;38.732;-121.358;2022-08-19T08:31:43;100431.44;;;24.49;41.72
64967;BME280;51710;38.732;-121.358;2022-08-19T08:34:12;100433.00;;;24.45;41.94
64967;BME280;51710;38.732;-121.358;2022-08-19T08:36:42;100428.31;;;24.41;41.96
64967;BME280;51710;38.732;-121.358;2022-08-19T08:39:13;100437.78;;;24.33;42.40
64967;BME280;51710;38.732;-121.358;2022-08-19T08:42:16;100421.59;;;24.27;42.30
64967;BME280;51710;38.732;-121.358;2022-08-19T08:45:02;100429.25;;;24.25;42.29
64967;BME280;51710;38.732;-121.358;2022-08-19T08:47:34;100425.09;;;24.22;42.28
64967;BME280;51710;38.732;-121.358;2022-08-19T08:50:10;100427.78;;;24.17;42.53
64967;BME280;51710;38.732;-121.358;2022-08-19T08:52:45;100420.13;;;24.14;42.46
64967;BME280;51710;38.732;-121.358;2022-08-19T08:55:19;100416.00;;;24.12;42.87
64967;BME280;51710;38.732;-121.358;2022-08-19T09:00:40;100429.78;;;24.05;42.73
64967;BME280;51710;38.732;-121.358;2022-08-19T09:03:22;100421.56;;;24.00;42.81
64967;BME280;51710;38.732;-121.358;2022-08-19T09:11:07;100425.44;;;23.88;43.26
64967;BME280;51710;38.732;-121.358;2022-08-19T09:16:30;100425.06;;;23.79;43.74
64967;BME280;51710;38.732;-121.358;2022-08-19T09:19:02;100428.81;;;23.78;43.57
64967;BME280;51710;38.732;-121.358;2022-08-19T09:21:30;100427.19;;;23.77;43.71
64967;BME280;51710;38.732;-121.358;2022-08-19T09:23:57;100421.19;;;23.75;43.91
64967;BME280;51710;38.732;-121.358;2022-08-19T09:26:25;100427.69;;;23.74;43.71
64967;BME280;51710;38.732;-121.358;2022-08-19T09:28:53;100423.91;;;23.75;43.99
64967;BME280;51710;38.732;-121.358;2022-08-19T09:31:26;100428.75;;;23.73;44.00
64967;BME280;51710;38.732;-121.358;2022-08-19T09:33:54;100433.63;;;23.71;43.96
64967;BME280;51710;38.732;-121.358;2022-08-19T09:36:26;100423.50;;;23.67;44.13
64967;BME280;51710;38.732;-121.358;2022-08-19T09:38:55;100420.97;;;23.60;44.49
64967;BME280;51710;38.732;-121.358;2022-08-19T09:41:24;100426.59;;;23.54;44.55
64967;BME280;51710;38.732;-121.358;2022-08-19T09:43:53;100420.81;;;23.50;44.66
64967;BME280;51710;38.732;-121.358;2022-08-19T09:46:26;100419.91;;;23.45;44.83
64967;BME280;51710;38.732;-121.358;2022-08-19T09:48:59;100417.91;;;23.40;44.99
64967;BME280;51710;38.732;-121.358;2022-08-19T09:51:26;100428.22;;;23.38;45.09
64967;BME280;51710;38.732;-121.358;2022-08-19T09:53:59;100421.97;;;23.37;45.23
64967;BME280;51710;38.732;-121.358;2022-08-19T09:56:27;100420.56;;;23.35;45.40
64967;BME280;51710;38.732;-121.358;2022-08-19T09:58:58;100419.41;;;23.31;45.61
64967;BME280;51710;38.732;-121.358;2022-08-19T10:01:28;100420.97;;;23.27;45.80
64967;BME280;51710;38.732;-121.358;2022-08-19T10:04:00;100417.06;;;23.23;45.86
64967;BME280;51710;38.732;-121.358;2022-08-19T10:06:29;100420.31;;;23.20;45.80
64967;BME280;51710;38.732;-121.358;2022-08-19T10:09:00;100419.13;;;23.16;45.91
64967;BME280;51710;38.732;-121.358;2022-08-19T10:11:30;100420.47;;;23.13;45.95
64967;BME280;51710;38.732;-121.358;2022-08-19T10:13:56;100420.13;;;23.10;46.24
64967;BME280;51710;38.732;-121.358;2022-08-19T10:16:23;100418.13;;;23.05;46.37
64967;BME280;51710;38.732;-121.358;2022-08-19T10:18:52;100419.69;;;23.01;46.41
64967;BME280;51710;38.732;-121.358;2022-08-19T10:21:25;100417.47;;;22.98;46.68
64967;BME280;51710;38.732;-121.358;2022-08-19T10:23:55;100414.19;;;22.96;46.53
64967;BME280;51710;38.732;-121.358;2022-08-19T10:26:35;100415.75;;;22.92;46.67
64967;BME280;51710;38.732;-121.358;2022-08-19T10:29:03;100417.31;;;22.88;46.87
64967;BME280;51710;38.732;-121.358;2022-08-19T10:31:32;100408.25;;;22.83;47.03
64967;BME280;51710;38.732;-121.358;2022-08-19T10:34:01;100406.25;;;22.78;47.16
64967;BME280;51710;38.732;-121.358;2022-08-19T10:36:31;100410.28;;;22.76;47.26
64967;BME280;51710;38.732;-121.358;2022-08-19T10:39:00;100416.78;;;22.75;47.28
64967;BME280;51710;38.732;-121.358;2022-08-19T10:41:30;100415.63;;;22.71;47.24
64967;BME280;51710;38.732;-121.358;2022-08-19T10:44:00;100417.75;;;22.69;47.41
64967;BME280;51710;38.732;-121.358;2022-08-19T10:46:29;100420.38;;;22.64;47.44
64967;BME280;51710;38.732;-121.358;2022-08-19T10:48:59;100427.34;;;22.60;47.63
64967;BME280;51710;38.732;-121.358;2022-08-19T10:51:29;100429.50;;;22.58;47.76
64967;BME280;51710;38.732;-121.358;2022-08-19T10:54:14;100429.97;;;22.55;47.95
64967;BME280;51710;38.732;-121.358;2022-08-19T10:56:41;100432.06;;;22.53;48.14
64967;BME280;51710;38.732;-121.358;2022-08-19T10:59:20;100428.56;;;22.52;48.35
64967;BME280;51710;38.732;-121.358;2022-08-19T11:01:53;100429.84;;;22.50;48.30
64967;BME280;51710;38.732;-121.358;2022-08-19T11:04:22;100437.41;;;22.48;48.44
64967;BME280;51710;38.732;-121.358;2022-08-19T11:06:55;100435.78;;;22.47;47.77
64967;BME280;51710;38.732;-121.358;2022-08-19T11:09:25;100435.44;;;22.43;48.11
64967;BME280;51710;38.732;-121.358;2022-08-19T11:12:25;100434.25;;;22.39;48.44
64967;BME280;51710;38.732;-121.358;2022-08-19T11:14:57;100440.16;;;22.36;48.36
64967;BME280;51710;38.732;-121.358;2022-08-19T11:17:24;100442.53;;;22.32;48.70
64967;BME280;51710;38.732;-121.358;2022-08-19T11:19:51;100434.88;;;22.29;48.73
64967;BME280;51710;38.732;-121.358;2022-08-19T11:22:18;100433.72;;;22.25;48.89
64967;BME280;51710;38.732;-121.358;2022-08-19T11:24:46;100427.94;;;22.22;48.84
64967;BME280;51710;38.732;-121.358;2022-08-19T11:27:16;100429.22;;;22.19;49.18
64967;BME280;51710;38.732;-121.358;2022-08-19T11:29:48;100427.50;;;22.13;49.35
64967;BME280;51710;38.732;-121.358;2022-08-19T11:32:14;100434.44;;;22.09;49.40
64967;BME280;51710;38.732;-121.358;2022-08-19T11:34:42;100429.25;;;22.08;49.26
64967;BME280;51710;38.732;-121.358;2022-08-19T11:40:07;100427.53;;;22.02;49.54
64967;BME280;51710;38.732;-121.358;2022-08-19T11:42:34;100425.50;;;21.97;49.36
64967;BME280;51710;38.732;-121.358;2022-08-19T11:45:19;100423.53;;;21.93;49.82
64967;BME280;51710;38.732;-121.358;2022-08-19T11:47:46;100432.13;;;21.90;49.85
64967;BME280;51710;38.732;-121.358;2022-08-19T11:50:20;100425.31;;;21.87;50.03
64967;BME280;51710;38.732;-121.358;2022-08-19T11:52:49;100426.34;;;21.86;50.17
64967;BME280;51710;38.732;-121.358;2022-08-19T11:55:17;100424.94;;;21.84;49.87
64967;BME280;51710;38.732;-121.358;2022-08-19T11:57:46;100424.59;;;21.80;50.50
64967;BME280;51710;38.732;-121.358;2022-08-19T12:00:20;100423.38;;;21.76;50.51
64967;BME280;51710;38.732;-121.358;2022-08-19T12:02:47;100427.66;;;21.72;50.38
64967;BME280;51710;38.732;-121.358;2022-08-19T12:05:28;100428.94;;;21.70;50.53
64967;BME280;51710;38.732;-121.358;2022-08-19T12:08:11;100433.53;;;21.69;50.46
64967;BME280;51710;38.732;-121.358;2022-08-19T12:10:55;100425.88;;;21.66;50.70
64967;BME280;51710;38.732;-121.358;2022-08-19T12:13:23;100431.28;;;21.66;50.77
64967;BME280;51710;38.732;-121.358;2022-08-19T12:15:56;100423.16;;;21.66;50.67
64967;BME280;51710;38.732;-121.358;2022-08-19T12:18:27;100434.00;;;21.66;50.70
64967;BME280;51710;38.732;-121.358;2022-08-19T12:20:58;100432.38;;;21.65;50.41
64967;BME280;51710;38.732;-121.358;2022-08-19T12:23:29;100432.00;;;21.62;50.98
64967;BME280;51710;38.732;-121.358;2022-08-19T12:25:58;100437.88;;;21.59;50.85
64967;BME280;51710;38.732;-121.358;2022-08-19T12:28:30;100438.97;;;21.58;51.04
64967;BME280;51710;38.732;-121.358;2022-08-19T12:30:57;100435.41;;;21.57;50.95
64967;BME280;51710;38.732;-121.358;2022-08-19T12:33:39;100443.78;;;21.56;50.75
64967;BME280;51710;38.732;-121.358;2022-08-19T12:36:12;100436.72;;;21.55;50.99
64967;BME280;51710;38.732;-121.358;2022-08-19T12:38:48;100441.78;;;21.51;51.12
64967;BME280;51710;38.732;-121.358;2022-08-19T12:41:21;100433.06;;;21.49;50.95
64967;BME280;51710;38.732;-121.358;2022-08-19T12:43:48;100433.53;;;21.46;51.14
64967;BME280;51710;38.732;-121.358;2022-08-19T12:46:20;100431.03;;;21.45;51.03
64967;BME280;51710;38.732;-121.358;2022-08-19T12:48:48;100434.00;;;21.43;51.22